createdAt,value
2023-04-04T00:00:32.300Z,83.13
2023-04-04T00:03:03.053Z,83.43
2023-04-04T00:05:35.915Z,83.45
2023-04-04T00:08:05.893Z,83.30
2023-04-04T00:10:35.709Z,83.46
2023-04-04T00:13:06.182Z,83.38
2023-04-04T00:15:36.768Z,83.46
2023-04-04T00:18:06.870Z,83.54
2023-04-04T00:20:41.715Z,83.52
2023-04-04T00:23:11.814Z,83.63
2023-04-04T00:25:41.701Z,83.68
2023-04-04T00:28:11.726Z,83.65
2023-04-04T00:30:41.732Z,83.79
2023-04-04T00:33:11.672Z,83.97
2023-04-04T00:35:44.642Z,83.99
2023-04-04T00:38:14.409Z,83.95
2023-04-04T00:40:45.738Z,84.18
2023-04-04T00:43:15.681Z,84.37
2023-04-04T00:45:46.468Z,84.45
2023-04-04T00:48:16.551Z,84.53
2023-04-04T00:50:49.019Z,84.68
2023-04-04T00:53:24.333Z,84.62
2023-04-04T00:55:54.201Z,84.87
2023-04-04T00:58:23.995Z,85.02
2023-04-04T01:00:53.914Z,85.15
2023-04-04T01:03:26.164Z,85.14
2023-04-04T01:05:59.002Z,85.35
2023-04-04T01:08:31.790Z,85.32
2023-04-04T01:11:01.870Z,85.55
2023-04-04T01:13:34.969Z,85.79
2023-04-04T01:16:06.824Z,85.81
2023-04-04T01:18:39.349Z,85.78
2023-04-04T01:21:17.276Z,86.10
2023-04-04T01:23:54.552Z,86.06
2023-04-04T01:26:27.298Z,86.25
2023-04-04T01:29:01.439Z,86.37
2023-04-04T01:31:34.114Z,86.52
2023-04-04T01:34:13.681Z,86.63
2023-04-04T01:36:47.863Z,86.73
2023-04-04T01:39:24.728Z,86.98
2023-04-04T01:41:59.176Z,86.95
2023-04-04T01:44:29.320Z,87.00
2023-04-04T01:46:59.470Z,87.13
2023-04-04T01:49:30.129Z,87.18
2023-04-04T01:52:00.448Z,87.23
2023-04-04T01:54:32.557Z,87.21
2023-04-04T01:57:04.941Z,87.18
2023-04-04T01:59:34.801Z,87.37
2023-04-04T02:02:04.621Z,87.36
2023-04-04T02:04:34.548Z,87.35
2023-04-04T02:07:04.840Z,87.48
2023-04-04T02:09:34.594Z,87.38
2023-04-04T02:12:07.153Z,87.43
2023-04-04T02:14:38.183Z,87.49
2023-04-04T02:17:07.962Z,87.53
2023-04-04T02:19:40.974Z,87.32
2023-04-04T02:22:10.813Z,87.37
2023-04-04T02:24:40.794Z,87.51
2023-04-04T02:27:13.192Z,87.62
2023-04-04T02:29:42.969Z,87.50
2023-04-04T02:32:12.752Z,87.40
2023-04-04T02:34:45.672Z,87.53
2023-04-04T02:37:15.433Z,87.54
2023-04-04T02:39:45.188Z,87.50
2023-04-04T02:42:17.561Z,87.53
2023-04-04T02:44:47.348Z,87.57
2023-04-04T02:47:17.297Z,87.64
2023-04-04T02:49:47.379Z,87.65
2023-04-04T02:52:17.345Z,87.62
2023-04-04T02:54:47.125Z,87.59
2023-04-04T02:57:21.105Z,87.68
2023-04-04T02:59:50.885Z,87.69
2023-04-04T03:02:22.352Z,87.55
2023-04-04T03:04:52.227Z,87.48
2023-04-04T03:07:22.318Z,87.54
2023-04-04T03:09:52.359Z,87.73
2023-04-04T03:12:26.267Z,87.54
2023-04-04T03:14:56.074Z,87.63
2023-04-04T03:17:25.981Z,87.65
2023-04-04T03:19:55.934Z,87.44
2023-04-04T03:22:25.840Z,87.60
2023-04-04T03:24:56.053Z,87.42
2023-04-04T03:27:28.413Z,87.51
2023-04-04T03:30:00.537Z,87.55
2023-04-04T03:32:30.358Z,87.50
2023-04-04T03:35:00.178Z,87.40
2023-04-04T03:37:30.236Z,87.45
2023-04-04T03:40:00.017Z,87.41
2023-04-04T03:42:36.270Z,87.62
2023-04-04T03:45:06.114Z,87.56
2023-04-04T03:47:35.939Z,87.68
2023-04-04T03:50:05.826Z,87.52
2023-04-04T03:52:35.741Z,87.62
2023-04-04T03:55:05.529Z,87.57
2023-04-04T03:57:38.247Z,87.57
2023-04-04T04:00:09.416Z,87.58
2023-04-04T04:02:39.414Z,87.56
2023-04-04T04:05:10.751Z,87.49
2023-04-04T04:07:40.584Z,87.70
2023-04-04T04:10:10.978Z,87.57
2023-04-04T04:12:43.410Z,87.70
2023-04-04T04:15:13.598Z,87.71
2023-04-04T04:17:43.809Z,87.47
2023-04-04T04:20:14.386Z,87.75
2023-04-04T04:22:48.757Z,87.67
2023-04-04T04:25:19.301Z,87.73
2023-04-04T04:27:51.714Z,87.62
2023-04-04T04:30:21.529Z,87.57
2023-04-04T04:32:52.537Z,87.75
2023-04-04T04:35:22.373Z,87.75
2023-04-04T04:37:53.448Z,87.72
2023-04-04T04:40:23.245Z,87.67
2023-04-04T04:42:56.102Z,87.75
2023-04-04T04:45:26.018Z,87.71
2023-04-04T04:47:55.895Z,87.65
2023-04-04T04:50:27.319Z,87.85
2023-04-04T04:52:57.139Z,87.79
2023-04-04T04:55:27.045Z,87.65
2023-04-04T04:57:59.480Z,87.83
2023-04-04T05:00:29.269Z,87.77
2023-04-04T05:03:00.795Z,87.72
2023-04-04T05:05:31.105Z,87.71
2023-04-04T05:08:00.983Z,87.84
2023-04-04T05:10:30.796Z,87.74
2023-04-04T05:13:04.070Z,87.77
2023-04-04T05:15:33.835Z,87.91
2023-04-04T05:18:04.502Z,87.93
2023-04-04T05:20:34.822Z,87.97
2023-04-04T05:23:04.652Z,88.08
2023-04-04T05:25:34.459Z,87.98
2023-04-04T05:28:08.051Z,87.99
2023-04-04T05:30:39.473Z,88.21
2023-04-04T05:33:09.503Z,88.05
2023-04-04T05:35:39.401Z,88.16
2023-04-04T05:38:10.041Z,88.11
2023-04-04T05:40:40.067Z,88.38
2023-04-04T05:43:12.871Z,88.39
2023-04-04T05:45:42.802Z,88.48
2023-04-04T05:48:13.506Z,88.59
2023-04-04T05:50:43.286Z,88.81
2023-04-04T05:53:13.098Z,88.97
2023-04-04T05:55:42.983Z,88.84
2023-04-04T05:58:17.247Z,88.80
2023-04-04T06:00:47.093Z,88.82
2023-04-04T06:03:20.419Z,88.79
2023-04-04T06:05:54.739Z,89.06
2023-04-04T06:08:25.437Z,89.10
2023-04-04T06:10:56.238Z,88.97
2023-04-04T06:13:28.764Z,88.91
2023-04-04T06:15:58.550Z,88.73
2023-04-04T06:18:29.186Z,88.85
2023-04-04T06:20:59.017Z,88.80
2023-04-04T06:23:28.821Z,88.70
2023-04-04T06:25:58.759Z,88.48
2023-04-04T06:28:31.944Z,88.28
2023-04-04T06:31:02.195Z,88.01
2023-04-04T06:33:32.020Z,87.79
2023-04-04T06:36:01.848Z,87.47
2023-04-04T06:38:31.928Z,87.23
2023-04-04T06:41:01.756Z,87.19
2023-04-04T06:43:34.252Z,87.08
2023-04-04T06:46:04.297Z,86.96
2023-04-04T06:48:34.084Z,86.72
2023-04-04T06:51:03.965Z,86.60
2023-04-04T06:53:34.587Z,86.32
2023-04-04T06:56:04.901Z,86.11
2023-04-04T06:58:39.274Z,86.11
2023-04-04T07:01:13.046Z,86.03
2023-04-04T07:03:45.295Z,85.95
2023-04-04T07:06:15.099Z,85.69
2023-04-04T07:08:45.009Z,85.51
2023-04-04T07:11:14.886Z,85.16
2023-04-04T07:13:47.477Z,85.03
2023-04-04T07:16:17.285Z,84.99
2023-04-04T07:18:47.201Z,84.97
2023-04-04T07:21:17.707Z,84.58
2023-04-04T07:23:47.546Z,84.32
2023-04-04T07:26:17.384Z,83.99
2023-04-04T07:28:49.760Z,83.63
2023-04-04T07:31:19.627Z,83.22
2023-04-04T07:33:52.838Z,82.74
2023-04-04T07:36:22.711Z,82.29
2023-04-04T07:38:52.613Z,82.06
2023-04-04T07:41:22.760Z,81.63
2023-04-04T07:43:55.646Z,81.38
2023-04-04T07:46:25.714Z,80.97
2023-04-04T07:48:55.844Z,80.59
2023-04-04T07:51:29.638Z,80.01
2023-04-04T07:53:59.827Z,79.62
2023-04-04T07:56:29.736Z,79.01
2023-04-04T07:59:02.428Z,78.57
2023-04-04T08:01:32.273Z,78.03
2023-04-04T08:04:03.819Z,77.41
2023-04-04T08:06:33.699Z,76.87
2023-04-04T08:09:03.873Z,76.30
2023-04-04T08:11:33.944Z,75.86
2023-04-04T08:14:07.580Z,75.23
2023-04-04T08:16:41.042Z,74.57
2023-04-04T08:19:11.309Z,73.99
2023-04-04T08:21:41.143Z,73.30
2023-04-04T08:24:11.309Z,72.75
2023-04-04T08:26:42.342Z,72.32
2023-04-04T08:29:17.105Z,72.12
2023-04-04T08:31:51.592Z,71.84
2023-04-04T08:34:28.014Z,71.62
2023-04-04T08:36:58.235Z,71.00
2023-04-04T08:39:28.078Z,70.33
2023-04-04T08:42:05.631Z,69.89
2023-04-04T08:44:39.948Z,69.52
2023-04-04T08:47:12.375Z,69.04
2023-04-04T08:49:46.392Z,68.54
2023-04-04T08:52:23.404Z,67.93
2023-04-04T08:54:54.519Z,67.11
2023-04-04T08:57:24.737Z,66.63
2023-04-04T08:59:57.318Z,66.30
2023-04-04T09:02:33.402Z,65.82
2023-04-04T09:05:07.263Z,65.58
2023-04-04T09:07:39.394Z,65.20
2023-04-04T09:10:11.992Z,65.12
2023-04-04T09:12:47.706Z,64.99
2023-04-04T09:15:20.681Z,64.78
2023-04-04T09:17:50.548Z,64.61
2023-04-04T09:20:42.286Z,64.60
2023-04-04T09:23:13.975Z,64.45
2023-04-04T09:28:26.405Z,64.06
2023-04-04T09:30:58.910Z,63.81
2023-04-04T09:33:29.223Z,63.38
2023-04-04T09:36:01.743Z,63.06
2023-04-04T09:38:32.740Z,62.86
2023-04-04T09:41:02.803Z,62.36
2023-04-04T09:43:35.117Z,62.29
2023-04-04T09:46:09.229Z,62.32
2023-04-04T09:48:40.355Z,62.13
2023-04-04T09:51:15.078Z,61.81
2023-04-04T09:53:44.921Z,61.71
2023-04-04T09:56:14.758Z,61.45
2023-04-04T09:59:00.269Z,61.13
2023-04-04T10:01:39.903Z,61.12
2023-04-04T10:04:16.337Z,61.07
2023-04-04T10:06:47.910Z,60.94
2023-04-04T10:09:18.841Z,60.94
2023-04-04T10:11:49.576Z,60.89
2023-04-04T10:14:19.767Z,60.82
2023-04-04T10:16:52.172Z,60.77
2023-04-04T10:19:22.789Z,60.85
2023-04-04T10:21:53.008Z,60.79
2023-04-04T10:24:26.629Z,60.86
2023-04-04T10:26:56.542Z,60.80
2023-04-04T10:29:28.122Z,60.87
2023-04-04T10:32:08.024Z,60.97
2023-04-04T10:34:46.069Z,60.95
2023-04-04T10:37:18.598Z,60.97
2023-04-04T10:39:55.777Z,61.01
2023-04-04T10:42:26.636Z,61.25
2023-04-04T10:44:58.412Z,61.41
2023-04-04T10:47:37.149Z,61.33
2023-04-04T10:50:10.429Z,61.25
2023-04-04T10:52:42.269Z,61.15
2023-04-04T10:55:16.050Z,60.92
2023-04-04T10:57:51.960Z,60.89
2023-04-04T11:00:23.768Z,60.78
2023-04-04T11:03:01.470Z,60.60
2023-04-04T11:05:41.348Z,60.50
2023-04-04T11:08:14.513Z,60.44
2023-04-04T11:10:46.311Z,60.42
2023-04-04T11:13:19.377Z,60.41
2023-04-04T11:15:55.063Z,60.25
2023-04-04T11:18:54.040Z,60.35
2023-04-04T11:21:28.035Z,60.37
2023-04-04T11:24:17.812Z,60.42
2023-04-04T11:26:48.753Z,60.16
2023-04-04T11:29:54.513Z,59.84
2023-04-04T11:32:32.461Z,59.98
2023-04-04T11:35:08.274Z,59.96
2023-04-04T11:37:46.512Z,59.94
2023-04-04T11:40:18.642Z,59.96
2023-04-04T11:42:56.276Z,60.11
2023-04-04T11:45:29.450Z,60.24
2023-04-04T11:48:00.341Z,60.18
2023-04-04T11:50:37.713Z,60.17
2023-04-04T11:53:13.580Z,60.23
2023-04-04T11:55:47.661Z,60.25
2023-04-04T11:58:21.035Z,60.14
2023-04-04T12:00:50.894Z,60.04
2023-04-04T12:03:23.177Z,60.09
2023-04-04T12:05:55.771Z,60.05
2023-04-04T12:08:26.174Z,60.19
2023-04-04T12:10:57.909Z,60.28
2023-04-04T12:13:36.799Z,60.21
2023-04-04T12:16:06.933Z,60.04
2023-04-04T12:18:36.828Z,60.16
2023-04-04T12:21:09.785Z,60.07
2023-04-04T12:23:39.800Z,60.17
2023-04-04T12:26:11.529Z,60.36
2023-04-04T12:28:41.960Z,60.39
2023-04-04T12:31:12.459Z,60.42
2023-04-04T12:33:43.989Z,60.09
2023-04-04T12:36:16.503Z,60.20
2023-04-04T12:39:01.153Z,60.24
2023-04-04T12:41:31.018Z,60.24
2023-04-04T12:44:05.712Z,60.21
2023-04-04T12:46:39.965Z,60.16
2023-04-04T12:49:11.174Z,60.22
2023-04-04T12:51:44.215Z,60.14
2023-04-04T12:54:29.201Z,60.41
2023-04-04T12:56:59.963Z,60.38
2023-04-04T12:59:32.480Z,60.28
2023-04-04T13:02:07.605Z,60.49
2023-04-04T13:04:40.940Z,60.36
2023-04-04T13:07:27.647Z,60.34
2023-04-04T13:09:58.521Z,60.36
2023-04-04T13:12:29.715Z,60.28
2023-04-04T13:15:01.409Z,60.41
2023-04-04T13:17:44.522Z,60.30
2023-04-04T13:20:15.203Z,60.08
2023-04-04T13:22:47.860Z,60.11
2023-04-04T13:25:20.755Z,60.08
2023-04-04T13:27:50.601Z,60.14
2023-04-04T13:30:20.501Z,60.14
2023-04-04T13:32:50.369Z,60.12
2023-04-04T13:35:20.334Z,60.20
2023-04-04T13:37:52.836Z,60.27
2023-04-04T13:40:22.856Z,60.37
2023-04-04T13:42:52.955Z,60.43
2023-04-04T13:45:22.819Z,60.54
2023-04-04T13:47:52.925Z,60.69
2023-04-04T13:50:24.173Z,60.90
2023-04-04T13:52:56.955Z,60.86
2023-04-04T13:55:26.902Z,60.93
2023-04-04T13:57:56.798Z,60.97
2023-04-04T14:00:27.140Z,60.93
2023-04-04T14:02:57.489Z,60.93
2023-04-04T14:05:27.524Z,60.92
2023-04-04T14:08:00.122Z,61.02
2023-04-04T14:10:29.959Z,61.07
2023-04-04T14:12:59.766Z,61.08
2023-04-04T14:15:29.785Z,61.09
2023-04-04T14:17:59.604Z,61.09
2023-04-04T14:20:35.101Z,61.08
2023-04-04T14:23:07.720Z,61.09
2023-04-04T14:25:37.801Z,60.97
2023-04-04T14:28:08.030Z,60.88
2023-04-04T14:30:37.869Z,60.78
2023-04-04T14:33:08.613Z,60.72
2023-04-04T14:35:39.130Z,60.77
2023-04-04T14:38:11.947Z,60.82
2023-04-04T14:40:41.754Z,60.82
2023-04-04T14:43:11.701Z,60.72
2023-04-04T14:45:42.046Z,60.58
2023-04-04T14:48:12.224Z,60.51
2023-04-04T14:50:43.048Z,60.47
2023-04-04T14:53:16.246Z,60.51
2023-04-04T14:55:51.453Z,60.35
2023-04-04T14:58:21.321Z,60.18
2023-04-04T15:00:52.131Z,60.13
2023-04-04T15:03:22.050Z,59.97
2023-04-04T15:05:52.824Z,59.86
2023-04-04T15:08:25.433Z,59.63
2023-04-04T15:10:55.284Z,59.30
2023-04-04T15:13:25.159Z,59.20
2023-04-04T15:15:55.022Z,59.15
2023-04-04T15:18:24.924Z,58.97
2023-04-04T15:20:54.737Z,58.87
2023-04-04T15:23:27.211Z,58.79
2023-04-04T15:25:57.064Z,58.86
2023-04-04T15:28:27.466Z,58.98
2023-04-04T15:30:57.993Z,58.93
2023-04-04T15:33:28.516Z,59.04
2023-04-04T15:35:58.418Z,59.07
2023-04-04T15:38:31.020Z,59.31
2023-04-04T15:41:01.065Z,59.31
2023-04-04T15:43:32.158Z,59.36
2023-04-04T15:46:03.198Z,59.47
2023-04-04T15:48:37.576Z,59.63
2023-04-04T15:51:07.734Z,59.72
2023-04-04T15:53:40.345Z,59.80
2023-04-04T15:56:11.063Z,59.84
2023-04-04T15:58:41.055Z,59.77
2023-04-04T16:01:10.998Z,59.64
2023-04-04T16:03:40.986Z,59.58
2023-04-04T16:06:13.319Z,59.66
2023-04-04T16:08:46.099Z,59.91
2023-04-04T16:11:20.050Z,60.07
2023-04-04T16:13:50.143Z,60.25
2023-04-04T16:16:20.168Z,60.44
2023-04-04T16:18:50.044Z,60.76
2023-04-04T16:21:20.092Z,61.08
2023-04-04T16:23:52.530Z,61.39
2023-04-04T16:26:23.858Z,61.79
2023-04-04T16:28:53.885Z,61.89
2023-04-04T16:31:24.912Z,62.18
2023-04-04T16:33:54.848Z,62.56
2023-04-04T16:36:25.053Z,62.93
2023-04-04T16:38:59.523Z,63.26
2023-04-04T16:41:29.591Z,63.51
2023-04-04T16:43:59.943Z,64.07
2023-04-04T16:46:30.483Z,64.68
2023-04-04T16:49:00.424Z,65.04
2023-04-04T16:51:32.007Z,65.37
2023-04-04T16:54:04.680Z,65.79
2023-04-04T16:56:34.509Z,65.99
2023-04-04T16:59:04.629Z,66.29
2023-04-04T17:01:34.704Z,66.59
2023-04-04T17:04:09.305Z,66.87
2023-04-04T17:06:39.200Z,67.17
2023-04-04T17:09:11.786Z,67.44
2023-04-04T17:11:47.161Z,67.68
2023-04-04T17:14:17.006Z,67.84
2023-04-04T17:16:46.872Z,68.10
2023-04-04T17:19:16.690Z,68.29
2023-04-04T17:21:47.218Z,68.50
2023-04-04T17:24:19.758Z,68.72
2023-04-04T17:26:49.642Z,68.99
2023-04-04T17:29:20.906Z,69.17
2023-04-04T17:31:51.096Z,69.25
2023-04-04T17:34:21.008Z,69.29
2023-04-04T17:36:54.995Z,69.36
2023-04-04T17:39:27.532Z,69.44
2023-04-04T17:41:57.919Z,69.66
2023-04-04T17:44:27.860Z,69.69
2023-04-04T17:46:58.075Z,69.62
2023-04-04T17:49:30.218Z,69.78
2023-04-04T17:52:00.055Z,69.69
2023-04-04T17:54:32.528Z,69.99
2023-04-04T17:57:03.605Z,70.11
2023-04-04T17:59:33.888Z,70.23
2023-04-04T18:02:04.646Z,70.36
2023-04-04T18:04:35.581Z,70.42
2023-04-04T18:07:06.383Z,70.73
2023-04-04T18:09:39.603Z,70.89
2023-04-04T18:12:09.930Z,71.00
2023-04-04T18:14:39.804Z,71.13
2023-04-04T18:17:10.349Z,71.30
2023-04-04T18:19:41.693Z,71.49
2023-04-04T18:22:12.264Z,71.73
2023-04-04T18:24:45.829Z,71.87
2023-04-04T18:27:16.793Z,72.00
2023-04-04T18:29:47.102Z,72.19
2023-04-04T18:32:16.958Z,72.34
2023-04-04T18:34:46.840Z,72.34
2023-04-04T18:37:16.983Z,72.30
2023-04-04T18:39:49.455Z,72.47
2023-04-04T18:42:19.373Z,72.57
2023-04-04T18:44:49.433Z,72.67
2023-04-04T18:47:22.364Z,72.73
2023-04-04T18:49:52.301Z,72.76
2023-04-04T18:52:22.596Z,72.83
2023-04-04T18:54:55.066Z,73.07
2023-04-04T18:57:24.901Z,73.01
2023-04-04T18:59:54.778Z,73.23
2023-04-04T19:02:26.036Z,73.35
2023-04-04T19:04:57.000Z,73.39
2023-04-04T19:07:29.952Z,73.60
2023-04-04T19:10:06.449Z,73.62
2023-04-04T19:12:36.929Z,73.74
2023-04-04T19:15:07.311Z,73.79
2023-04-04T19:17:37.463Z,73.87
2023-04-04T19:20:08.680Z,73.87
2023-04-04T19:22:38.601Z,74.09
2023-04-04T19:25:12.081Z,74.29
2023-04-04T19:27:41.986Z,74.33
2023-04-04T19:30:36.491Z,74.48
2023-04-04T19:33:11.319Z,74.59
2023-04-04T19:35:59.220Z,74.63
2023-04-04T19:38:31.134Z,74.79
2023-04-04T19:41:05.991Z,74.92
2023-04-04T19:43:36.149Z,75.00
2023-04-04T19:46:10.994Z,74.97
2023-04-04T19:48:49.222Z,75.00
2023-04-04T19:51:40.311Z,75.24
2023-04-04T19:54:15.164Z,75.26
2023-04-04T19:56:49.387Z,75.39
2023-04-04T19:59:50.016Z,75.47
2023-04-04T20:02:54.438Z,75.53
2023-04-04T20:05:57.749Z,75.62
2023-04-04T20:08:43.135Z,75.73
2023-04-04T20:11:14.481Z,75.78
2023-04-04T20:13:48.285Z,75.91
2023-04-04T20:16:22.280Z,75.89
2023-04-04T20:18:52.150Z,76.15
2023-04-04T20:21:23.727Z,76.19
2023-04-04T20:23:55.458Z,76.31
2023-04-04T20:26:44.454Z,76.37
2023-04-04T20:29:19.208Z,76.37
2023-04-04T20:31:51.008Z,76.49
2023-04-04T20:34:34.267Z,76.66
2023-04-04T20:37:06.217Z,76.63
2023-04-04T20:39:41.776Z,76.74
2023-04-04T20:42:21.946Z,76.91
2023-04-04T20:44:54.603Z,76.86
2023-04-04T20:47:44.241Z,77.02
2023-04-04T20:50:47.514Z,77.19
2023-04-04T20:53:21.954Z,77.20
2023-04-04T20:55:56.425Z,77.24
2023-04-04T20:58:32.158Z,77.21
2023-04-04T21:01:04.717Z,77.29
2023-04-04T21:03:40.987Z,77.41
2023-04-04T21:06:16.292Z,77.48
2023-04-04T21:08:47.894Z,77.39
2023-04-04T21:11:29.243Z,77.51
2023-04-04T21:13:59.635Z,77.59
2023-04-04T21:16:32.478Z,77.64
2023-04-04T21:19:04.426Z,77.65
2023-04-04T21:21:34.319Z,77.71
2023-04-04T21:24:07.099Z,77.70
2023-04-04T21:26:38.264Z,77.88
2023-04-04T21:29:11.645Z,77.86
2023-04-04T21:31:44.464Z,77.83
2023-04-04T21:34:17.257Z,77.95
2023-04-04T21:36:53.975Z,77.97
2023-04-04T21:39:25.793Z,77.94
2023-04-04T21:41:59.339Z,78.08
2023-04-04T21:44:29.332Z,78.09
2023-04-04T21:47:01.789Z,78.23
2023-04-04T21:49:31.715Z,78.24
2023-04-04T21:52:01.544Z,78.30
2023-04-04T21:54:31.496Z,78.33
2023-04-04T21:57:01.337Z,78.45
2023-04-04T21:59:31.316Z,78.34
2023-04-04T22:02:03.966Z,78.52
2023-04-04T22:04:33.995Z,78.52
2023-04-04T22:07:03.883Z,78.63
2023-04-04T22:09:33.719Z,78.53
2023-04-04T22:12:03.547Z,78.68
2023-04-04T22:14:33.379Z,78.75
2023-04-04T22:17:05.744Z,78.78
2023-04-04T22:19:44.385Z,78.79
2023-04-04T22:22:14.248Z,78.75
2023-04-04T22:24:45.015Z,78.86
2023-04-04T22:27:14.928Z,78.88
2023-04-04T22:29:44.823Z,78.92
2023-04-04T22:32:17.230Z,79.03
2023-04-04T22:34:47.424Z,79.00
2023-04-04T22:37:19.942Z,79.09
2023-04-04T22:39:51.736Z,79.04
2023-04-04T22:42:22.011Z,79.04
2023-04-04T22:44:51.834Z,79.11
2023-04-04T22:47:24.310Z,79.08
2023-04-04T22:49:55.707Z,79.07
2023-04-04T22:52:26.648Z,79.11
2023-04-04T22:54:56.746Z,79.17
2023-04-04T22:57:26.543Z,79.22
2023-04-04T22:59:56.410Z,79.27
2023-04-04T23:02:32.075Z,79.17
2023-04-04T23:05:01.967Z,79.17
2023-04-04T23:07:31.791Z,79.18
2023-04-04T23:10:01.603Z,79.24
2023-04-04T23:12:31.517Z,79.25
2023-04-04T23:15:01.688Z,79.13
2023-04-04T23:17:34.381Z,79.14
2023-04-04T23:20:09.564Z,79.23
2023-04-04T23:22:40.295Z,79.24
2023-04-04T23:25:11.184Z,79.24
2023-04-04T23:27:41.099Z,79.25
2023-04-04T23:30:12.458Z,79.37
2023-04-04T23:32:45.081Z,79.17
2023-04-04T23:35:14.979Z,79.43
2023-04-04T23:37:44.820Z,79.46
2023-04-04T23:40:15.733Z,79.43
2023-04-04T23:42:45.819Z,79.53
2023-04-04T23:45:16.447Z,79.50
2023-04-04T23:47:48.989Z,79.52
2023-04-04T23:50:19.366Z,79.54
2023-04-04T23:52:49.210Z,79.49
2023-04-04T23:55:19.346Z,79.56
2023-04-04T23:57:49.453Z,79.69
